sensor_id;sensor_type;location;lat;lon;timestamp;P1;durP1;ratioP1;P2;durP2;ratioP2
19016;SDS011;9641;51.494;6.670;2023-09-19T00:00:26;9.60;;;2.70;;
19016;SDS011;9641;51.494;6.670;2023-09-19T00:02:54;10.13;;;2.27;;
19016;SDS011;9641;51.494;6.670;2023-09-19T00:05:25;8.80;;;2.43;;
19016;SDS011;9641;51.494;6.670;2023-09-19T00:07:59;10.40;;;2.80;;
19016;SDS011;9641;51.494;6.670;2023-09-19T00:10:30;11.80;;;2.70;;
19016;SDS011;9641;51.494;6.670;2023-09-19T00:13:02;8.33;;;2.80;;
19016;SDS011;9641;51.494;6.670;2023-09-19T00:15:36;8.13;;;2.40;;
19016;SDS011;9641;51.494;6.670;2023-09-19T00:18:04;12.23;;;2.90;;
19016;SDS011;9641;51.494;6.670;2023-09-19T00:20:35;12.17;;;2.17;;
19016;SDS011;9641;51.494;6.670;2023-09-19T00:23:02;10.23;;;2.47;;
19016;SDS011;9641;51.494;6.670;2023-09-19T00:25:33;10.20;;;2.90;;
19016;SDS011;9641;51.494;6.670;2023-09-19T00:28:07;7.97;;;2.53;;
19016;SDS011;9641;51.494;6.670;2023-09-19T00:30:35;11.37;;;3.27;;
19016;SDS011;9641;51.494;6.670;2023-09-19T00:33:04;12.13;;;2.37;;
19016;SDS011;9641;51.494;6.670;2023-09-19T00:35:33;10.80;;;2.70;;
19016;SDS011;9641;51.494;6.670;2023-09-19T00:38:05;6.77;;;2.47;;
19016;SDS011;9641;51.494;6.670;2023-09-19T00:40:33;9.73;;;2.70;;
19016;SDS011;9641;51.494;6.670;2023-09-19T00:43:05;10.30;;;2.80;;
19016;SDS011;9641;51.494;6.670;2023-09-19T00:45:32;13.87;;;2.90;;
19016;SDS011;9641;51.494;6.670;2023-09-19T00:48:04;9.37;;;2.20;;
19016;SDS011;9641;51.494;6.670;2023-09-19T00:50:34;10.03;;;2.70;;
19016;SDS011;9641;51.494;6.670;2023-09-19T00:53:07;11.23;;;2.70;;
19016;SDS011;9641;51.494;6.670;2023-09-19T00:55:35;8.87;;;2.30;;
19016;SDS011;9641;51.494;6.670;2023-09-19T00:58:06;8.33;;;2.70;;
19016;SDS011;9641;51.494;6.670;2023-09-19T01:00:37;13.37;;;2.87;;
19016;SDS011;9641;51.494;6.670;2023-09-19T01:03:10;13.23;;;3.10;;
19016;SDS011;9641;51.494;6.670;2023-09-19T01:05:39;8.60;;;2.70;;
19016;SDS011;9641;51.494;6.670;2023-09-19T01:08:07;8.87;;;2.43;;
19016;SDS011;9641;51.494;6.670;2023-09-19T01:10:36;12.97;;;2.87;;
19016;SDS011;9641;51.494;6.670;2023-09-19T01:13:09;12.43;;;3.13;;
19016;SDS011;9641;51.494;6.670;2023-09-19T01:15:49;15.03;;;3.07;;
19016;SDS011;9641;51.494;6.670;2023-09-19T01:18:22;8.60;;;2.90;;
19016;SDS011;9641;51.494;6.670;2023-09-19T01:21:00;10.03;;;2.80;;
19016;SDS011;9641;51.494;6.670;2023-09-19T01:23:39;6.50;;;2.67;;
19016;SDS011;9641;51.494;6.670;2023-09-19T01:26:37;7.47;;;2.63;;
19016;SDS011;9641;51.494;6.670;2023-09-19T01:29:26;9.57;;;2.93;;
19016;SDS011;9641;51.494;6.670;2023-09-19T01:32:05;9.23;;;2.50;;
19016;SDS011;9641;51.494;6.670;2023-09-19T01:34:45;10.87;;;2.60;;
19016;SDS011;9641;51.494;6.670;2023-09-19T01:37:15;9.13;;;2.67;;
19016;SDS011;9641;51.494;6.670;2023-09-19T01:39:45;8.83;;;2.80;;
19016;SDS011;9641;51.494;6.670;2023-09-19T01:42:18;12.60;;;2.80;;
19016;SDS011;9641;51.494;6.670;2023-09-19T01:44:57;9.20;;;2.67;;
19016;SDS011;9641;51.494;6.670;2023-09-19T01:47:32;11.97;;;2.93;;
19016;SDS011;9641;51.494;6.670;2023-09-19T01:50:04;7.83;;;2.77;;
19016;SDS011;9641;51.494;6.670;2023-09-19T01:52:42;9.30;;;2.83;;
19016;SDS011;9641;51.494;6.670;2023-09-19T01:55:13;9.37;;;3.07;;
19016;SDS011;9641;51.494;6.670;2023-09-19T01:57:46;11.77;;;2.87;;
19016;SDS011;9641;51.494;6.670;2023-09-19T02:00:19;9.17;;;2.40;;
19016;SDS011;9641;51.494;6.670;2023-09-19T02:02:50;9.73;;;2.20;;
19016;SDS011;9641;51.494;6.670;2023-09-19T02:05:24;6.40;;;2.40;;
19016;SDS011;9641;51.494;6.670;2023-09-19T02:07:52;10.17;;;3.00;;
19016;SDS011;9641;51.494;6.670;2023-09-19T02:10:21;11.90;;;2.60;;
19016;SDS011;9641;51.494;6.670;2023-09-19T02:12:49;10.23;;;2.67;;
19016;SDS011;9641;51.494;6.670;2023-09-19T02:15:16;9.33;;;2.47;;
19016;SDS011;9641;51.494;6.670;2023-09-19T02:17:44;14.40;;;2.67;;
19016;SDS011;9641;51.494;6.670;2023-09-19T02:20:12;9.37;;;2.73;;
19016;SDS011;9641;51.494;6.670;2023-09-19T02:22:40;9.40;;;3.03;;
19016;SDS011;9641;51.494;6.670;2023-09-19T02:25:08;12.03;;;2.83;;
19016;SDS011;9641;51.494;6.670;2023-09-19T02:27:41;10.77;;;2.67;;
19016;SDS011;9641;51.494;6.670;2023-09-19T02:30:12;9.47;;;2.70;;
19016;SDS011;9641;51.494;6.670;2023-09-19T02:32:41;13.63;;;2.50;;
19016;SDS011;9641;51.494;6.670;2023-09-19T02:35:08;9.93;;;2.80;;
19016;SDS011;9641;51.494;6.670;2023-09-19T02:37:38;9.27;;;2.63;;
19016;SDS011;9641;51.494;6.670;2023-09-19T02:40:05;16.93;;;2.90;;
19016;SDS011;9641;51.494;6.670;2023-09-19T02:42:44;11.00;;;2.90;;
19016;SDS011;9641;51.494;6.670;2023-09-19T02:45:24;7.37;;;2.40;;
19016;SDS011;9641;51.494;6.670;2023-09-19T02:47:51;8.50;;;2.73;;
19016;SDS011;9641;51.494;6.670;2023-09-19T02:50:19;10.93;;;2.63;;
19016;SDS011;9641;51.494;6.670;2023-09-19T02:52:47;12.17;;;2.67;;
19016;SDS011;9641;51.494;6.670;2023-09-19T02:55:15;8.20;;;2.53;;
19016;SDS011;9641;51.494;6.670;2023-09-19T02:57:47;10.00;;;3.17;;
19016;SDS011;9641;51.494;6.670;2023-09-19T03:00:16;8.83;;;2.40;;
19016;SDS011;9641;51.494;6.670;2023-09-19T03:02:46;10.57;;;2.53;;
19016;SDS011;9641;51.494;6.670;2023-09-19T03:05:14;9.50;;;2.60;;
19016;SDS011;9641;51.494;6.670;2023-09-19T03:07:41;8.63;;;2.60;;
19016;SDS011;9641;51.494;6.670;2023-09-19T03:10:13;8.07;;;2.37;;
19016;SDS011;9641;51.494;6.670;2023-09-19T03:12:41;11.63;;;2.67;;
19016;SDS011;9641;51.494;6.670;2023-09-19T03:15:09;4.57;;;2.10;;
19016;SDS011;9641;51.494;6.670;2023-09-19T03:17:36;13.13;;;2.17;;
19016;SDS011;9641;51.494;6.670;2023-09-19T03:20:04;8.33;;;2.43;;
19016;SDS011;9641;51.494;6.670;2023-09-19T03:22:35;11.10;;;2.37;;
19016;SDS011;9641;51.494;6.670;2023-09-19T03:25:04;10.90;;;2.33;;
19016;SDS011;9641;51.494;6.670;2023-09-19T03:27:36;7.63;;;2.23;;
19016;SDS011;9641;51.494;6.670;2023-09-19T03:30:05;12.30;;;2.50;;
19016;SDS011;9641;51.494;6.670;2023-09-19T03:32:34;7.33;;;2.60;;
19016;SDS011;9641;51.494;6.670;2023-09-19T03:35:02;10.47;;;2.40;;
19016;SDS011;9641;51.494;6.670;2023-09-19T03:37:31;7.70;;;2.40;;
19016;SDS011;9641;51.494;6.670;2023-09-19T03:39:58;11.47;;;2.70;;
19016;SDS011;9641;51.494;6.670;2023-09-19T03:42:30;11.83;;;2.40;;
19016;SDS011;9641;51.494;6.670;2023-09-19T03:44:59;11.87;;;3.10;;
19016;SDS011;9641;51.494;6.670;2023-09-19T03:47:30;7.37;;;2.40;;
19016;SDS011;9641;51.494;6.670;2023-09-19T03:49:59;11.67;;;2.80;;
19016;SDS011;9641;51.494;6.670;2023-09-19T03:52:27;9.33;;;2.50;;
19016;SDS011;9641;51.494;6.670;2023-09-19T03:54:54;9.40;;;2.47;;
19016;SDS011;9641;51.494;6.670;2023-09-19T03:57:21;8.37;;;2.37;;
19016;SDS011;9641;51.494;6.670;2023-09-19T03:59:50;11.07;;;2.40;;
19016;SDS011;9641;51.494;6.670;2023-09-19T04:02:19;5.03;;;2.10;;
19016;SDS011;9641;51.494;6.670;2023-09-19T04:04:49;7.20;;;2.73;;
19016;SDS011;9641;51.494;6.670;2023-09-19T04:07:17;13.93;;;3.07;;
19016;SDS011;9641;51.494;6.670;2023-09-19T04:09:45;10.67;;;2.60;;
19016;SDS011;9641;51.494;6.670;2023-09-19T04:12:14;13.77;;;3.30;;
19016;SDS011;9641;51.494;6.670;2023-09-19T04:14:42;13.67;;;3.67;;
19016;SDS011;9641;51.494;6.670;2023-09-19T04:17:09;13.63;;;2.83;;
19016;SDS011;9641;51.494;6.670;2023-09-19T04:19:37;11.90;;;2.90;;
19016;SDS011;9641;51.494;6.670;2023-09-19T04:22:06;8.17;;;2.50;;
19016;SDS011;9641;51.494;6.670;2023-09-19T04:24:33;8.67;;;2.60;;
19016;SDS011;9641;51.494;6.670;2023-09-19T04:27:00;6.00;;;2.60;;
19016;SDS011;9641;51.494;6.670;2023-09-19T04:29:27;6.83;;;2.33;;
19016;SDS011;9641;51.494;6.670;2023-09-19T04:31:55;8.93;;;2.27;;
19016;SDS011;9641;51.494;6.670;2023-09-19T04:34:22;18.37;;;3.37;;
19016;SDS011;9641;51.494;6.670;2023-09-19T04:36:51;11.20;;;2.80;;
19016;SDS011;9641;51.494;6.670;2023-09-19T04:39:19;15.37;;;3.60;;
19016;SDS011;9641;51.494;6.670;2023-09-19T04:41:46;10.77;;;2.80;;
19016;SDS011;9641;51.494;6.670;2023-09-19T04:44:13;10.33;;;3.00;;
19016;SDS011;9641;51.494;6.670;2023-09-19T04:46:40;10.40;;;2.90;;
19016;SDS011;9641;51.494;6.670;2023-09-19T04:49:07;13.43;;;2.97;;
19016;SDS011;9641;51.494;6.670;2023-09-19T04:51:34;6.80;;;2.27;;
19016;SDS011;9641;51.494;6.670;2023-09-19T04:54:02;9.67;;;3.30;;
19016;SDS011;9641;51.494;6.670;2023-09-19T04:56:30;9.53;;;2.67;;
19016;SDS011;9641;51.494;6.670;2023-09-19T04:58:57;9.50;;;2.73;;
19016;SDS011;9641;51.494;6.670;2023-09-19T05:01:25;7.63;;;2.73;;
19016;SDS011;9641;51.494;6.670;2023-09-19T05:03:52;7.53;;;2.20;;
19016;SDS011;9641;51.494;6.670;2023-09-19T05:06:20;11.37;;;2.50;;
19016;SDS011;9641;51.494;6.670;2023-09-19T05:08:47;10.87;;;2.73;;
19016;SDS011;9641;51.494;6.670;2023-09-19T05:11:18;9.83;;;3.20;;
19016;SDS011;9641;51.494;6.670;2023-09-19T05:13:47;10.57;;;3.53;;
19016;SDS011;9641;51.494;6.670;2023-09-19T05:16:14;8.63;;;2.70;;
19016;SDS011;9641;51.494;6.670;2023-09-19T05:18:42;8.33;;;2.63;;
19016;SDS011;9641;51.494;6.670;2023-09-19T05:21:09;9.47;;;2.90;;
19016;SDS011;9641;51.494;6.670;2023-09-19T05:23:36;7.47;;;2.70;;
19016;SDS011;9641;51.494;6.670;2023-09-19T05:26:03;11.83;;;2.93;;
19016;SDS011;9641;51.494;6.670;2023-09-19T05:28:31;10.00;;;2.63;;
19016;SDS011;9641;51.494;6.670;2023-09-19T05:31:00;7.93;;;3.13;;
19016;SDS011;9641;51.494;6.670;2023-09-19T05:33:27;11.63;;;2.70;;
19016;SDS011;9641;51.494;6.670;2023-09-19T05:35:57;16.43;;;3.47;;
19016;SDS011;9641;51.494;6.670;2023-09-19T05:38:24;14.57;;;2.93;;
19016;SDS011;9641;51.494;6.670;2023-09-19T05:40:51;11.33;;;2.83;;
19016;SDS011;9641;51.494;6.670;2023-09-19T05:43:19;11.23;;;2.70;;
19016;SDS011;9641;51.494;6.670;2023-09-19T05:45:47;7.53;;;2.70;;
19016;SDS011;9641;51.494;6.670;2023-09-19T05:48:17;13.13;;;3.07;;
19016;SDS011;9641;51.494;6.670;2023-09-19T05:50:46;11.80;;;3.00;;
19016;SDS011;9641;51.494;6.670;2023-09-19T05:53:13;8.80;;;2.50;;
19016;SDS011;9641;51.494;6.670;2023-09-19T05:55:41;7.60;;;2.50;;
19016;SDS011;9641;51.494;6.670;2023-09-19T05:58:08;14.97;;;2.87;;
19016;SDS011;9641;51.494;6.670;2023-09-19T06:00:39;8.37;;;2.60;;
19016;SDS011;9641;51.494;6.670;2023-09-19T06:03:09;8.57;;;2.47;;
19016;SDS011;9641;51.494;6.670;2023-09-19T06:05:37;13.80;;;2.90;;
19016;SDS011;9641;51.494;6.670;2023-09-19T06:08:06;12.00;;;3.00;;
19016;SDS011;9641;51.494;6.670;2023-09-19T06:10:34;11.93;;;2.87;;
19016;SDS011;9641;51.494;6.670;2023-09-19T06:13:01;7.60;;;2.70;;
19016;SDS011;9641;51.494;6.670;2023-09-19T06:15:31;7.90;;;2.73;;
19016;SDS011;9641;51.494;6.670;2023-09-19T06:17:58;8.43;;;2.30;;
19016;SDS011;9641;51.494;6.670;2023-09-19T06:20:29;10.57;;;2.90;;
19016;SDS011;9641;51.494;6.670;2023-09-19T06:22:56;6.83;;;2.70;;
19016;SDS011;9641;51.494;6.670;2023-09-19T06:25:24;8.87;;;2.90;;
19016;SDS011;9641;51.494;6.670;2023-09-19T06:27:51;10.40;;;2.73;;
19016;SDS011;9641;51.494;6.670;2023-09-19T06:30:20;9.50;;;2.70;;
19016;SDS011;9641;51.494;6.670;2023-09-19T06:32:48;11.93;;;2.80;;
19016;SDS011;9641;51.494;6.670;2023-09-19T06:35:15;13.00;;;3.07;;
19016;SDS011;9641;51.494;6.670;2023-09-19T06:37:47;12.07;;;2.90;;
19016;SDS011;9641;51.494;6.670;2023-09-19T06:40:16;10.20;;;3.10;;
19016;SDS011;9641;51.494;6.670;2023-09-19T06:42:44;12.70;;;3.20;;
19016;SDS011;9641;51.494;6.670;2023-09-19T06:45:13;14.73;;;2.90;;
19016;SDS011;9641;51.494;6.670;2023-09-19T06:47:44;8.17;;;2.73;;
19016;SDS011;9641;51.494;6.670;2023-09-19T06:50:14;11.67;;;2.90;;
19016;SDS011;9641;51.494;6.670;2023-09-19T06:52:45;11.77;;;2.80;;
19016;SDS011;9641;51.494;6.670;2023-09-19T06:55:15;13.50;;;2.73;;
19016;SDS011;9641;51.494;6.670;2023-09-19T06:57:43;11.40;;;3.20;;
19016;SDS011;9641;51.494;6.670;2023-09-19T07:00:10;11.73;;;3.03;;
19016;SDS011;9641;51.494;6.670;2023-09-19T07:02:44;7.00;;;2.80;;
19016;SDS011;9641;51.494;6.670;2023-09-19T07:05:11;7.17;;;2.50;;
19016;SDS011;9641;51.494;6.670;2023-09-19T07:07:38;12.60;;;2.90;;
19016;SDS011;9641;51.494;6.670;2023-09-19T07:10:07;7.97;;;2.73;;
19016;SDS011;9641;51.494;6.670;2023-09-19T07:12:36;16.27;;;3.10;;
19016;SDS011;9641;51.494;6.670;2023-09-19T07:15:03;9.87;;;2.70;;
19016;SDS011;9641;51.494;6.670;2023-09-19T07:17:31;11.67;;;2.57;;
19016;SDS011;9641;51.494;6.670;2023-09-19T07:19:58;13.27;;;2.67;;
19016;SDS011;9641;51.494;6.670;2023-09-19T07:22:25;12.43;;;2.70;;
19016;SDS011;9641;51.494;6.670;2023-09-19T07:24:52;8.37;;;2.33;;
19016;SDS011;9641;51.494;6.670;2023-09-19T07:27:21;11.83;;;3.30;;
19016;SDS011;9641;51.494;6.670;2023-09-19T07:29:48;6.63;;;2.80;;
19016;SDS011;9641;51.494;6.670;2023-09-19T07:32:15;12.03;;;2.80;;
19016;SDS011;9641;51.494;6.670;2023-09-19T07:34:43;10.80;;;2.90;;
19016;SDS011;9641;51.494;6.670;2023-09-19T07:37:10;13.13;;;3.00;;
19016;SDS011;9641;51.494;6.670;2023-09-19T07:39:38;16.03;;;2.70;;
19016;SDS011;9641;51.494;6.670;2023-09-19T07:42:06;13.87;;;2.63;;
19016;SDS011;9641;51.494;6.670;2023-09-19T07:44:36;12.67;;;3.20;;
19016;SDS011;9641;51.494;6.670;2023-09-19T07:47:03;9.27;;;3.17;;
19016;SDS011;9641;51.494;6.670;2023-09-19T07:49:41;9.77;;;2.87;;
19016;SDS011;9641;51.494;6.670;2023-09-19T07:52:13;13.73;;;2.87;;
19016;SDS011;9641;51.494;6.670;2023-09-19T07:54:40;11.37;;;2.90;;
19016;SDS011;9641;51.494;6.670;2023-09-19T07:57:09;9.73;;;2.60;;
19016;SDS011;9641;51.494;6.670;2023-09-19T07:59:37;11.10;;;2.50;;
19016;SDS011;9641;51.494;6.670;2023-09-19T08:02:07;16.40;;;3.10;;
19016;SDS011;9641;51.494;6.670;2023-09-19T08:04:40;15.83;;;3.37;;
19016;SDS011;9641;51.494;6.670;2023-09-19T08:07:08;12.93;;;3.83;;
19016;SDS011;9641;51.494;6.670;2023-09-19T08:09:36;8.27;;;2.77;;
19016;SDS011;9641;51.494;6.670;2023-09-19T08:12:07;9.30;;;2.50;;
19016;SDS011;9641;51.494;6.670;2023-09-19T08:14:39;9.60;;;2.80;;
19016;SDS011;9641;51.494;6.670;2023-09-19T08:17:07;8.03;;;2.47;;
19016;SDS011;9641;51.494;6.670;2023-09-19T08:19:35;12.60;;;3.03;;
19016;SDS011;9641;51.494;6.670;2023-09-19T08:22:07;15.77;;;2.63;;
19016;SDS011;9641;51.494;6.670;2023-09-19T08:24:35;11.53;;;2.57;;
19016;SDS011;9641;51.494;6.670;2023-09-19T08:27:05;9.70;;;2.90;;
19016;SDS011;9641;51.494;6.670;2023-09-19T08:29:35;8.50;;;2.50;;
19016;SDS011;9641;51.494;6.670;2023-09-19T08:32:04;10.03;;;2.67;;
19016;SDS011;9641;51.494;6.670;2023-09-19T08:34:31;8.30;;;2.57;;
19016;SDS011;9641;51.494;6.670;2023-09-19T08:36:59;9.70;;;2.70;;
19016;SDS011;9641;51.494;6.670;2023-09-19T08:39:26;9.20;;;2.47;;
19016;SDS011;9641;51.494;6.670;2023-09-19T08:41:59;10.23;;;2.83;;
19016;SDS011;9641;51.494;6.670;2023-09-19T08:44:27;9.10;;;2.37;;
19016;SDS011;9641;51.494;6.670;2023-09-19T08:46:58;13.30;;;2.50;;
19016;SDS011;9641;51.494;6.670;2023-09-19T08:49:41;15.43;;;2.67;;
19016;SDS011;9641;51.494;6.670;2023-09-19T08:52:20;13.10;;;2.57;;
19016;SDS011;9641;51.494;6.670;2023-09-19T08:54:55;10.43;;;2.80;;
19016;SDS011;9641;51.494;6.670;2023-09-19T08:57:27;10.00;;;2.77;;
19016;SDS011;9641;51.494;6.670;2023-09-19T08:59:57;7.13;;;2.37;;
19016;SDS011;9641;51.494;6.670;2023-09-19T09:02:25;9.07;;;2.50;;
19016;SDS011;9641;51.494;6.670;2023-09-19T09:04:56;12.37;;;2.73;;
19016;SDS011;9641;51.494;6.670;2023-09-19T09:07:24;9.07;;;2.93;;
19016;SDS011;9641;51.494;6.670;2023-09-19T09:09:53;12.97;;;2.80;;
19016;SDS011;9641;51.494;6.670;2023-09-19T09:12:21;9.30;;;2.77;;
19016;SDS011;9641;51.494;6.670;2023-09-19T09:14:49;14.00;;;2.50;;
19016;SDS011;9641;51.494;6.670;2023-09-19T09:17:20;9.53;;;2.70;;
19016;SDS011;9641;51.494;6.670;2023-09-19T09:19:50;11.70;;;2.97;;
19016;SDS011;9641;51.494;6.670;2023-09-19T09:22:20;14.10;;;2.73;;
19016;SDS011;9641;51.494;6.670;2023-09-19T09:24:51;16.37;;;2.60;;
19016;SDS011;9641;51.494;6.670;2023-09-19T09:27:19;9.43;;;2.90;;
19016;SDS011;9641;51.494;6.670;2023-09-19T09:29:49;10.97;;;2.90;;
19016;SDS011;9641;51.494;6.670;2023-09-19T09:32:20;10.23;;;2.47;;
19016;SDS011;9641;51.494;6.670;2023-09-19T09:34:49;10.07;;;2.50;;
19016;SDS011;9641;51.494;6.670;2023-09-19T09:37:18;8.53;;;2.50;;
19016;SDS011;9641;51.494;6.670;2023-09-19T09:39:51;8.77;;;2.50;;
19016;SDS011;9641;51.494;6.670;2023-09-19T09:42:35;11.80;;;2.53;;
19016;SDS011;9641;51.494;6.670;2023-09-19T09:45:17;14.70;;;2.60;;
19016;SDS011;9641;51.494;6.670;2023-09-19T09:47:53;8.13;;;2.60;;
19016;SDS011;9641;51.494;6.670;2023-09-19T09:50:27;14.07;;;2.93;;
19016;SDS011;9641;51.494;6.670;2023-09-19T09:53:21;7.30;;;2.20;;
19016;SDS011;9641;51.494;6.670;2023-09-19T09:55:56;8.17;;;2.40;;
19016;SDS011;9641;51.494;6.670;2023-09-19T09:58:26;14.20;;;3.80;;
19016;SDS011;9641;51.494;6.670;2023-09-19T10:00:55;13.53;;;2.80;;
19016;SDS011;9641;51.494;6.670;2023-09-19T10:03:33;6.40;;;2.33;;
19016;SDS011;9641;51.494;6.670;2023-09-19T10:06:09;10.30;;;2.43;;
19016;SDS011;9641;51.494;6.670;2023-09-19T10:09:00;7.37;;;2.83;;
19016;SDS011;9641;51.494;6.670;2023-09-19T10:11:37;6.78;;;2.28;;
19016;SDS011;9641;51.494;6.670;2023-09-19T10:14:08;8.50;;;2.72;;
19016;SDS011;9641;51.494;6.670;2023-09-19T10:16:38;10.50;;;2.50;;
19016;SDS011;9641;51.494;6.670;2023-09-19T10:19:09;12.38;;;2.70;;
19016;SDS011;9641;51.494;6.670;2023-09-19T10:21:39;9.13;;;2.55;;
19016;SDS011;9641;51.494;6.670;2023-09-19T10:24:10;8.55;;;2.60;;
19016;SDS011;9641;51.494;6.670;2023-09-19T10:26:38;8.32;;;2.50;;
19016;SDS011;9641;51.494;6.670;2023-09-19T10:29:12;10.27;;;2.80;;
19016;SDS011;9641;51.494;6.670;2023-09-19T10:31:42;10.45;;;2.92;;
19016;SDS011;9641;51.494;6.670;2023-09-19T10:34:13;10.90;;;2.60;;
19016;SDS011;9641;51.494;6.670;2023-09-19T10:36:44;7.88;;;2.50;;
19016;SDS011;9641;51.494;6.670;2023-09-19T10:39:15;13.10;;;2.78;;
19016;SDS011;9641;51.494;6.670;2023-09-19T10:41:47;7.60;;;2.45;;
19016;SDS011;9641;51.494;6.670;2023-09-19T10:44:22;7.07;;;2.30;;
19016;SDS011;9641;51.494;6.670;2023-09-19T10:46:52;13.40;;;2.60;;
19016;SDS011;9641;51.494;6.670;2023-09-19T10:49:19;11.75;;;2.97;;
19016;SDS011;9641;51.494;6.670;2023-09-19T10:52:19;6.55;;;2.42;;
19016;SDS011;9641;51.494;6.670;2023-09-19T10:54:51;7.30;;;2.30;;
19016;SDS011;9641;51.494;6.670;2023-09-19T10:57:22;9.20;;;2.38;;
19016;SDS011;9641;51.494;6.670;2023-09-19T11:00:02;10.68;;;2.40;;
19016;SDS011;9641;51.494;6.670;2023-09-19T11:06:00;16.00;;;3.22;;
19016;SDS011;9641;51.494;6.670;2023-09-19T11:08:54;6.60;;;2.65;;
19016;SDS011;9641;51.494;6.670;2023-09-19T11:11:44;6.80;;;2.42;;
19016;SDS011;9641;51.494;6.670;2023-09-19T11:20:20;9.73;;;2.45;;
19016;SDS011;9641;51.494;6.670;2023-09-19T11:23:19;7.88;;;2.20;;
19016;SDS011;9641;51.494;6.670;2023-09-19T11:25:50;10.00;;;2.92;;
19016;SDS011;9641;51.494;6.670;2023-09-19T11:28:35;8.45;;;2.35;;
19016;SDS011;9641;51.494;6.670;2023-09-19T11:40:44;8.07;;;2.30;;
19016;SDS011;9641;51.494;6.670;2023-09-19T11:43:30;12.27;;;2.58;;
19016;SDS011;9641;51.494;6.670;2023-09-19T11:46:06;10.48;;;2.95;;
19016;SDS011;9641;51.494;6.670;2023-09-19T11:48:40;10.77;;;2.75;;
19016;SDS011;9641;51.494;6.670;2023-09-19T11:51:14;7.95;;;2.35;;
19016;SDS011;9641;51.494;6.670;2023-09-19T11:53:49;10.70;;;2.50;;
19016;SDS011;9641;51.494;6.670;2023-09-19T11:56:18;6.43;;;2.28;;
19016;SDS011;9641;51.494;6.670;2023-09-19T11:58:48;7.00;;;2.50;;
19016;SDS011;9641;51.494;6.670;2023-09-19T12:01:24;8.57;;;2.15;;
19016;SDS011;9641;51.494;6.670;2023-09-19T12:03:55;7.22;;;2.45;;
19016;SDS011;9641;51.494;6.670;2023-09-19T12:06:25;7.30;;;2.10;;
19016;SDS011;9641;51.494;6.670;2023-09-19T12:08:57;8.18;;;2.38;;
19016;SDS011;9641;51.494;6.670;2023-09-19T12:11:27;6.88;;;2.13;;
19016;SDS011;9641;51.494;6.670;2023-09-19T12:14:01;8.95;;;2.13;;
19016;SDS011;9641;51.494;6.670;2023-09-19T12:16:30;8.32;;;2.10;;
19016;SDS011;9641;51.494;6.670;2023-09-19T12:18:58;5.07;;;2.10;;
19016;SDS011;9641;51.494;6.670;2023-09-19T12:21:52;4.65;;;1.75;;
19016;SDS011;9641;51.494;6.670;2023-09-19T12:24:26;5.93;;;2.00;;
19016;SDS011;9641;51.494;6.670;2023-09-19T12:26:59;8.43;;;2.25;;
19016;SDS011;9641;51.494;6.670;2023-09-19T12:29:32;7.18;;;2.83;;
19016;SDS011;9641;51.494;6.670;2023-09-19T12:32:11;6.93;;;2.30;;
19016;SDS011;9641;51.494;6.670;2023-09-19T12:34:42;5.90;;;2.42;;
19016;SDS011;9641;51.494;6.670;2023-09-19T12:37:21;7.10;;;2.05;;
19016;SDS011;9641;51.494;6.670;2023-09-19T12:39:52;6.72;;;2.03;;
19016;SDS011;9641;51.494;6.670;2023-09-19T12:42:41;5.32;;;2.08;;
19016;SDS011;9641;51.494;6.670;2023-09-19T12:45:10;15.05;;;2.50;;
19016;SDS011;9641;51.494;6.670;2023-09-19T12:53:33;2.47;;;1.30;;
19016;SDS011;9641;51.494;6.670;2023-09-19T12:56:09;5.35;;;1.77;;
19016;SDS011;9641;51.494;6.670;2023-09-19T12:58:51;5.60;;;1.60;;
19016;SDS011;9641;51.494;6.670;2023-09-19T13:01:20;4.80;;;2.05;;
19016;SDS011;9641;51.494;6.670;2023-09-19T13:06:53;6.00;;;1.88;;
19016;SDS011;9641;51.494;6.670;2023-09-19T13:09:26;5.35;;;1.73;;
19016;SDS011;9641;51.494;6.670;2023-09-19T13:12:00;3.97;;;1.60;;
19016;SDS011;9641;51.494;6.670;2023-09-19T13:14:29;6.38;;;1.88;;
19016;SDS011;9641;51.494;6.670;2023-09-19T13:17:04;3.00;;;1.58;;
19016;SDS011;9641;51.494;6.670;2023-09-19T13:19:41;8.27;;;1.83;;
19016;SDS011;9641;51.494;6.670;2023-09-19T13:22:38;8.85;;;1.70;;
19016;SDS011;9641;51.494;6.670;2023-09-19T13:25:14;4.07;;;1.45;;
19016;SDS011;9641;51.494;6.670;2023-09-19T13:27:43;5.40;;;1.52;;
19016;SDS011;9641;51.494;6.670;2023-09-19T13:30:13;5.85;;;1.33;;
19016;SDS011;9641;51.494;6.670;2023-09-19T13:32:41;6.55;;;1.35;;
19016;SDS011;9641;51.494;6.670;2023-09-19T13:35:09;8.90;;;1.80;;
19016;SDS011;9641;51.494;6.670;2023-09-19T13:37:39;4.15;;;1.75;;
19016;SDS011;9641;51.494;6.670;2023-09-19T13:40:08;8.15;;;1.60;;
19016;SDS011;9641;51.494;6.670;2023-09-19T13:42:36;4.45;;;1.35;;
19016;SDS011;9641;51.494;6.670;2023-09-19T13:45:03;11.27;;;2.47;;
19016;SDS011;9641;51.494;6.670;2023-09-19T13:47:31;5.38;;;1.50;;
19016;SDS011;9641;51.494;6.670;2023-09-19T13:49:59;2.17;;;1.27;;
19016;SDS011;9641;51.494;6.670;2023-09-19T13:52:37;4.38;;;1.48;;
19016;SDS011;9641;51.494;6.670;2023-09-19T13:55:06;7.88;;;1.77;;
19016;SDS011;9641;51.494;6.670;2023-09-19T13:57:34;2.70;;;1.30;;
19016;SDS011;9641;51.494;6.670;2023-09-19T14:00:01;10.05;;;1.45;;
19016;SDS011;9641;51.494;6.670;2023-09-19T14:02:37;3.83;;;1.75;;
19016;SDS011;9641;51.494;6.670;2023-09-19T14:05:05;3.65;;;1.30;;
19016;SDS011;9641;51.494;6.670;2023-09-19T14:07:33;3.60;;;1.38;;
19016;SDS011;9641;51.494;6.670;2023-09-19T14:10:05;6.90;;;1.40;;
19016;SDS011;9641;51.494;6.670;2023-09-19T14:12:33;3.88;;;1.55;;
19016;SDS011;9641;51.494;6.670;2023-09-19T14:15:00;3.95;;;1.63;;
19016;SDS011;9641;51.494;6.670;2023-09-19T14:17:33;3.97;;;1.52;;
19016;SDS011;9641;51.494;6.670;2023-09-19T14:20:02;7.05;;;1.70;;
19016;SDS011;9641;51.494;6.670;2023-09-19T14:22:32;3.42;;;1.17;;
19016;SDS011;9641;51.494;6.670;2023-09-19T14:25:00;3.50;;;1.33;;
19016;SDS011;9641;51.494;6.670;2023-09-19T14:27:32;5.30;;;1.20;;
19016;SDS011;9641;51.494;6.670;2023-09-19T14:30:02;2.33;;;1.38;;
19016;SDS011;9641;51.494;6.670;2023-09-19T14:32:30;6.35;;;1.15;;
19016;SDS011;9641;51.494;6.670;2023-09-19T14:35:01;4.50;;;1.52;;
19016;SDS011;9641;51.494;6.670;2023-09-19T14:37:28;4.22;;;1.73;;
19016;SDS011;9641;51.494;6.670;2023-09-19T14:39:56;4.60;;;1.15;;
19016;SDS011;9641;51.494;6.670;2023-09-19T14:42:23;4.38;;;1.20;;
19016;SDS011;9641;51.494;6.670;2023-09-19T14:44:54;4.28;;;1.73;;
19016;SDS011;9641;51.494;6.670;2023-09-19T14:47:24;5.82;;;1.27;;
19016;SDS011;9641;51.494;6.670;2023-09-19T14:49:53;3.95;;;1.27;;
19016;SDS011;9641;51.494;6.670;2023-09-19T14:52:20;5.38;;;1.27;;
19016;SDS011;9641;51.494;6.670;2023-09-19T14:54:47;3.20;;;1.30;;
19016;SDS011;9641;51.494;6.670;2023-09-19T14:57:14;3.13;;;1.20;;
19016;SDS011;9641;51.494;6.670;2023-09-19T14:59:41;2.47;;;1.20;;
19016;SDS011;9641;51.494;6.670;2023-09-19T15:02:10;3.47;;;1.02;;
19016;SDS011;9641;51.494;6.670;2023-09-19T15:04:40;2.28;;;1.27;;
19016;SDS011;9641;51.494;6.670;2023-09-19T15:07:09;2.50;;;1.38;;
19016;SDS011;9641;51.494;6.670;2023-09-19T15:09:40;2.92;;;1.30;;
19016;SDS011;9641;51.494;6.670;2023-09-19T15:12:11;3.28;;;0.90;;
19016;SDS011;9641;51.494;6.670;2023-09-19T15:14:39;2.97;;;1.00;;
19016;SDS011;9641;51.494;6.670;2023-09-19T15:17:07;2.17;;;1.10;;
19016;SDS011;9641;51.494;6.670;2023-09-19T15:19:38;2.67;;;1.05;;
19016;SDS011;9641;51.494;6.670;2023-09-19T15:22:05;1.27;;;1.15;;
19016;SDS011;9641;51.494;6.670;2023-09-19T15:24:32;2.80;;;0.90;;
19016;SDS011;9641;51.494;6.670;2023-09-19T15:27:00;2.63;;;1.10;;
19016;SDS011;9641;51.494;6.670;2023-09-19T15:29:27;3.58;;;1.20;;
19016;SDS011;9641;51.494;6.670;2023-09-19T15:31:55;3.80;;;1.35;;
19016;SDS011;9641;51.494;6.670;2023-09-19T15:34:27;9.57;;;1.38;;
19016;SDS011;9641;51.494;6.670;2023-09-19T15:36:56;2.92;;;1.33;;
19016;SDS011;9641;51.494;6.670;2023-09-19T15:39:23;2.17;;;1.25;;
19016;SDS011;9641;51.494;6.670;2023-09-19T15:41:50;2.35;;;0.90;;
19016;SDS011;9641;51.494;6.670;2023-09-19T15:44:18;3.65;;;1.08;;